sensor_id;sensor_type;location;lat;lon;timestamp;P1;P2;P0
68341;PMS7003;55668;52.310;21.066;2023-09-08T00:02:48;11;11;
68341;PMS7003;55668;52.310;21.066;2023-09-08T00:18:36;11;11;
68341;PMS7003;55668;52.310;21.066;2023-09-08T00:46:25;14;14;
68341;PMS7003;55668;52.310;21.066;2023-09-08T01:01:39;14;14;
68341;PMS7003;55668;52.310;21.066;2023-09-08T01:17:54;13;13;
68341;PMS7003;55668;52.310;21.066;2023-09-08T01:36:02;11;11;
68341;PMS7003;55668;52.310;21.066;2023-09-08T01:49:46;13;13;
68341;PMS7003;55668;52.310;21.066;2023-09-08T02:51:01;15;15;
68341;PMS7003;55668;52.310;21.066;2023-09-08T03:04:28;14;14;
68341;PMS7003;55668;52.310;21.066;2023-09-08T03:20:40;12;12;
68341;PMS7003;55668;52.310;21.066;2023-09-08T03:36:40;14;14;
68341;PMS7003;55668;52.310;21.066;2023-09-08T03:50:37;12;12;
68341;PMS7003;55668;52.310;21.066;2023-09-08T04:22:43;13;13;
68341;PMS7003;55668;52.310;21.066;2023-09-08T04:37:14;14;14;
68341;PMS7003;55668;52.310;21.066;2023-09-08T04:53:21;14;14;
68341;PMS7003;55668;52.310;21.066;2023-09-08T05:08:04;12;12;
68341;PMS7003;55668;52.310;21.066;2023-09-08T05:22:43;13;13;
68341;PMS7003;55668;52.310;21.066;2023-09-08T05:37:42;14;14;
68341;PMS7003;55668;52.310;21.066;2023-09-08T05:53:03;10;10;
68341;PMS7003;55668;52.310;21.066;2023-09-08T05:55:48;10;10;
68341;PMS7003;55668;52.310;21.066;2023-09-08T05:58:15;13;13;
68341;PMS7003;55668;52.310;21.066;2023-09-08T06:02:28;13;13;
68341;PMS7003;55668;52.310;21.066;2023-09-08T06:19:02;11;11;
68341;PMS7003;55668;52.310;21.066;2023-09-08T06:32:41;11;11;
68341;PMS7003;55668;52.310;21.066;2023-09-08T06:47:37;18;18;
68341;PMS7003;55668;52.310;21.066;2023-09-08T07:03:07;20;19;
68341;PMS7003;55668;52.310;21.066;2023-09-08T07:19:19;19;19;
68341;PMS7003;55668;52.310;21.066;2023-09-08T07:32:50;18;18;
68341;PMS7003;55668;52.310;21.066;2023-09-08T07:41:12;19;19;
68341;PMS7003;55668;52.310;21.066;2023-09-08T07:42:57;19;19;
68341;PMS7003;55668;52.310;21.066;2023-09-08T07:50:18;16;15;
68341;PMS7003;55668;52.310;21.066;2023-09-08T08:07:44;20;20;
68341;PMS7003;55668;52.310;21.066;2023-09-08T08:19:31;22;22;
68341;PMS7003;55668;52.310;21.066;2023-09-08T08:35:10;23;23;
68341;PMS7003;55668;52.310;21.066;2023-09-08T09:04:47;19;19;
68341;PMS7003;55668;52.310;21.066;2023-09-08T09:23:01;19;19;
68341;PMS7003;55668;52.310;21.066;2023-09-08T09:36:20;19;19;
68341;PMS7003;55668;52.310;21.066;2023-09-08T09:50:55;21;21;
68341;PMS7003;55668;52.310;21.066;2023-09-08T10:07:39;17;17;
68341;PMS7003;55668;52.310;21.066;2023-09-08T10:23:53;22;22;
68341;PMS7003;55668;52.310;21.066;2023-09-08T10:45:18;22;21;
68341;PMS7003;55668;52.310;21.066;2023-09-08T11:03:48;20;20;
68341;PMS7003;55668;52.310;21.066;2023-09-08T11:15:23;21;21;
68341;PMS7003;55668;52.310;21.066;2023-09-08T11:33:33;23;23;
68341;PMS7003;55668;52.310;21.066;2023-09-08T11:47:10;22;22;
68341;PMS7003;55668;52.310;21.066;2023-09-08T12:01:45;22;22;
68341;PMS7003;55668;52.310;21.066;2023-09-08T12:18:37;26;24;
68341;PMS7003;55668;52.310;21.066;2023-09-08T12:35:57;24;24;
68341;PMS7003;55668;52.310;21.066;2023-09-08T13:03:40;26;25;
68341;PMS7003;55668;52.310;21.066;2023-09-08T13:19:25;22;22;
68341;PMS7003;55668;52.310;21.066;2023-09-08T13:33:57;25;25;
68341;PMS7003;55668;52.310;21.066;2023-09-08T13:50:32;22;22;
68341;PMS7003;55668;52.310;21.066;2023-09-08T14:03:53;23;23;
68341;PMS7003;55668;52.310;21.066;2023-09-08T14:20:24;19;19;
68341;PMS7003;55668;52.310;21.066;2023-09-08T15:20:50;20;20;
68341;PMS7003;55668;52.310;21.066;2023-09-08T15:36:28;19;19;
68341;PMS7003;55668;52.310;21.066;2023-09-08T15:51:47;19;19;
68341;PMS7003;55668;52.310;21.066;2023-09-08T16:08:15;18;18;
68341;PMS7003;55668;52.310;21.066;2023-09-08T16:22:13;19;19;
68341;PMS7003;55668;52.310;21.066;2023-09-08T16:38:39;19;19;
68341;PMS7003;55668;52.310;21.066;2023-09-08T16:54:47;21;21;
68341;PMS7003;55668;52.310;21.066;2023-09-08T17:08:31;20;20;
68341;PMS7003;55668;52.310;21.066;2023-09-08T17:25:35;19;17;
68341;PMS7003;55668;52.310;21.066;2023-09-08T17:39:38;22;22;
68341;PMS7003;55668;52.310;21.066;2023-09-08T17:54:41;22;22;
68341;PMS7003;55668;52.310;21.066;2023-09-08T18:09:54;34;33;
68341;PMS7003;55668;52.310;21.066;2023-09-08T18:26:11;24;24;
68341;PMS7003;55668;52.310;21.066;2023-09-08T18:41:56;31;28;
68341;PMS7003;55668;52.310;21.066;2023-09-08T18:57:31;25;25;
68341;PMS7003;55668;52.310;21.066;2023-09-08T19:11:02;24;24;
68341;PMS7003;55668;52.310;21.066;2023-09-08T19:31:52;28;28;
68341;PMS7003;55668;52.310;21.066;2023-09-08T19:41:57;29;29;
68341;PMS7003;55668;52.310;21.066;2023-09-08T19:56:47;38;33;
68341;PMS7003;55668;52.310;21.066;2023-09-08T20:13:54;34;30;
68341;PMS7003;55668;52.310;21.066;2023-09-08T20:27:30;36;32;
68341;PMS7003;55668;52.310;21.066;2023-09-08T20:43:23;39;35;
68341;PMS7003;55668;52.310;21.066;2023-09-08T20:59:17;36;33;
68341;PMS7003;55668;52.310;21.066;2023-09-08T21:13:28;42;36;
68341;PMS7003;55668;52.310;21.066;2023-09-08T21:30:41;45;38;
68341;PMS7003;55668;52.310;21.066;2023-09-08T21:46:01;39;35;
68341;PMS7003;55668;52.310;21.066;2023-09-08T22:05:58;38;34;
68341;PMS7003;55668;52.310;21.066;2023-09-08T22:15:39;35;33;
68341;PMS7003;55668;52.310;21.066;2023-09-08T22:30:59;31;30;
68341;PMS7003;55668;52.310;21.066;2023-09-08T23:01:57;31;30;
68341;PMS7003;55668;52.310;21.066;2023-09-08T23:17:04;30;30;
68341;PMS7003;55668;52.310;21.066;2023-09-08T23:32:06;26;26;
68341;PMS7003;55668;52.310;21.066;2023-09-08T23:47:40;27;26;
